sensor_id;sensor_type;location;lat;lon;timestamp;P1;durP1;ratioP1;P2;durP2;ratioP2
25846;SDS011;13676;50.168;8.568;2024-03-23T00:54:36;16.58;;;11.90;;
25846;SDS011;13676;50.168;8.568;2024-03-23T00:57:01;17.23;;;11.52;;
25846;SDS011;13676;50.168;8.568;2024-03-23T00:59:26;14.32;;;10.45;;
25846;SDS011;13676;50.168;8.568;2024-03-23T01:01:53;19.13;;;12.48;;
25846;SDS011;13676;50.168;8.568;2024-03-23T01:04:19;16.42;;;11.02;;
25846;SDS011;13676;50.168;8.568;2024-03-23T01:06:45;20.40;;;12.18;;
25846;SDS011;13676;50.168;8.568;2024-03-23T01:09:10;19.27;;;11.57;;
25846;SDS011;13676;50.168;8.568;2024-03-23T01:11:36;20.88;;;14.10;;
25846;SDS011;13676;50.168;8.568;2024-03-23T01:14:02;17.90;;;11.85;;
25846;SDS011;13676;50.168;8.568;2024-03-23T01:16:28;14.70;;;10.48;;
25846;SDS011;13676;50.168;8.568;2024-03-23T01:18:53;15.07;;;10.50;;
25846;SDS011;13676;50.168;8.568;2024-03-23T01:21:18;15.68;;;10.63;;
25846;SDS011;13676;50.168;8.568;2024-03-23T01:23:44;14.25;;;10.35;;
25846;SDS011;13676;50.168;8.568;2024-03-23T01:26:09;14.07;;;10.63;;
25846;SDS011;13676;50.168;8.568;2024-03-23T01:28:35;16.42;;;10.18;;
25846;SDS011;13676;50.168;8.568;2024-03-23T01:31:00;13.63;;;9.50;;
25846;SDS011;13676;50.168;8.568;2024-03-23T01:33:26;16.85;;;11.32;;
25846;SDS011;13676;50.168;8.568;2024-03-23T01:35:51;18.50;;;10.95;;
25846;SDS011;13676;50.168;8.568;2024-03-23T01:38:16;13.55;;;9.85;;
25846;SDS011;13676;50.168;8.568;2024-03-23T01:40:42;15.95;;;10.38;;
25846;SDS011;13676;50.168;8.568;2024-03-23T01:43:07;13.40;;;9.75;;
25846;SDS011;13676;50.168;8.568;2024-03-23T01:45:33;12.07;;;8.90;;
25846;SDS011;13676;50.168;8.568;2024-03-23T01:47:59;13.10;;;9.63;;
25846;SDS011;13676;50.168;8.568;2024-03-23T01:50:25;15.20;;;10.45;;
25846;SDS011;13676;50.168;8.568;2024-03-23T01:52:50;15.77;;;11.48;;
25846;SDS011;13676;50.168;8.568;2024-03-23T01:55:16;17.42;;;10.85;;
25846;SDS011;13676;50.168;8.568;2024-03-23T01:57:41;15.82;;;11.32;;
25846;SDS011;13676;50.168;8.568;2024-03-23T02:00:07;16.63;;;11.60;;
25846;SDS011;13676;50.168;8.568;2024-03-23T02:02:32;17.10;;;11.50;;
25846;SDS011;13676;50.168;8.568;2024-03-23T02:04:58;16.63;;;10.98;;
25846;SDS011;13676;50.168;8.568;2024-03-23T02:07:23;14.48;;;9.75;;
25846;SDS011;13676;50.168;8.568;2024-03-23T02:09:50;11.90;;;9.25;;
25846;SDS011;13676;50.168;8.568;2024-03-23T02:12:16;12.15;;;9.10;;
25846;SDS011;13676;50.168;8.568;2024-03-23T02:14:42;15.00;;;9.73;;
25846;SDS011;13676;50.168;8.568;2024-03-23T02:17:07;12.80;;;9.80;;
25846;SDS011;13676;50.168;8.568;2024-03-23T02:19:34;17.23;;;10.32;;
25846;SDS011;13676;50.168;8.568;2024-03-23T02:21:59;16.83;;;10.10;;
25846;SDS011;13676;50.168;8.568;2024-03-23T02:24:24;17.27;;;11.70;;
25846;SDS011;13676;50.168;8.568;2024-03-23T02:26:50;14.68;;;10.35;;
25846;SDS011;13676;50.168;8.568;2024-03-23T02:29:15;16.98;;;10.13;;
25846;SDS011;13676;50.168;8.568;2024-03-23T02:31:41;16.63;;;10.95;;
25846;SDS011;13676;50.168;8.568;2024-03-23T02:34:06;16.08;;;10.93;;
25846;SDS011;13676;50.168;8.568;2024-03-23T02:36:31;14.93;;;10.95;;
25846;SDS011;13676;50.168;8.568;2024-03-23T02:38:57;18.65;;;11.65;;
25846;SDS011;13676;50.168;8.568;2024-03-23T02:41:22;15.27;;;11.13;;
25846;SDS011;13676;50.168;8.568;2024-03-23T02:43:49;18.33;;;11.13;;
25846;SDS011;13676;50.168;8.568;2024-03-23T02:46:15;21.50;;;11.98;;
25846;SDS011;13676;50.168;8.568;2024-03-23T02:48:40;17.90;;;11.80;;
25846;SDS011;13676;50.168;8.568;2024-03-23T02:51:05;17.17;;;11.60;;
25846;SDS011;13676;50.168;8.568;2024-03-23T02:53:31;16.02;;;11.55;;
25846;SDS011;13676;50.168;8.568;2024-03-23T02:55:57;18.17;;;11.15;;
25846;SDS011;13676;50.168;8.568;2024-03-23T02:58:23;14.98;;;11.10;;
25846;SDS011;13676;50.168;8.568;2024-03-23T03:00:48;14.48;;;11.25;;
25846;SDS011;13676;50.168;8.568;2024-03-23T03:03:14;14.77;;;11.10;;
25846;SDS011;13676;50.168;8.568;2024-03-23T03:05:39;15.00;;;11.57;;
25846;SDS011;13676;50.168;8.568;2024-03-23T03:08:05;17.15;;;10.63;;
25846;SDS011;13676;50.168;8.568;2024-03-23T03:10:30;14.63;;;10.95;;
25846;SDS011;13676;50.168;8.568;2024-03-23T03:12:59;16.52;;;11.00;;
25846;SDS011;13676;50.168;8.568;2024-03-23T03:15:25;19.30;;;11.32;;
25846;SDS011;13676;50.168;8.568;2024-03-23T03:17:50;12.50;;;10.35;;
25846;SDS011;13676;50.168;8.568;2024-03-23T03:20:16;23.00;;;13.93;;
25846;SDS011;13676;50.168;8.568;2024-03-23T03:22:42;21.50;;;14.77;;
25846;SDS011;13676;50.168;8.568;2024-03-23T03:25:08;21.83;;;13.90;;
25846;SDS011;13676;50.168;8.568;2024-03-23T03:27:33;22.10;;;13.93;;
25846;SDS011;13676;50.168;8.568;2024-03-23T03:29:59;20.77;;;14.57;;
25846;SDS011;13676;50.168;8.568;2024-03-23T03:34:53;22.48;;;14.95;;
25846;SDS011;13676;50.168;8.568;2024-03-23T03:37:19;19.27;;;12.95;;
25846;SDS011;13676;50.168;8.568;2024-03-23T03:39:44;19.02;;;13.40;;
25846;SDS011;13676;50.168;8.568;2024-03-23T03:42:09;23.23;;;15.02;;
25846;SDS011;13676;50.168;8.568;2024-03-23T03:44:35;26.75;;;16.85;;
25846;SDS011;13676;50.168;8.568;2024-03-23T03:47:01;22.23;;;15.82;;
25846;SDS011;13676;50.168;8.568;2024-03-23T03:49:27;24.35;;;16.67;;
25846;SDS011;13676;50.168;8.568;2024-03-23T03:51:52;21.75;;;15.82;;
25846;SDS011;13676;50.168;8.568;2024-03-23T03:54:18;22.42;;;16.35;;
25846;SDS011;13676;50.168;8.568;2024-03-23T03:56:43;26.60;;;16.92;;
25846;SDS011;13676;50.168;8.568;2024-03-23T03:59:08;27.70;;;15.48;;
25846;SDS011;13676;50.168;8.568;2024-03-23T04:01:34;25.58;;;15.70;;
25846;SDS011;13676;50.168;8.568;2024-03-23T04:04:00;30.23;;;18.48;;
25846;SDS011;13676;50.168;8.568;2024-03-23T04:06:26;24.48;;;16.15;;
25846;SDS011;13676;50.168;8.568;2024-03-23T04:08:51;15.20;;;10.65;;
25846;SDS011;13676;50.168;8.568;2024-03-23T04:11:16;7.68;;;6.22;;
25846;SDS011;13676;50.168;8.568;2024-03-23T04:13:42;5.93;;;4.70;;
25846;SDS011;13676;50.168;8.568;2024-03-23T04:16:08;5.30;;;3.92;;
25846;SDS011;13676;50.168;8.568;2024-03-23T04:18:34;6.32;;;4.53;;
25846;SDS011;13676;50.168;8.568;2024-03-23T04:21:00;5.15;;;3.58;;
25846;SDS011;13676;50.168;8.568;2024-03-23T04:23:25;5.47;;;4.03;;
25846;SDS011;13676;50.168;8.568;2024-03-23T04:25:51;3.08;;;2.55;;
25846;SDS011;13676;50.168;8.568;2024-03-23T04:28:18;2.45;;;1.80;;
25846;SDS011;13676;50.168;8.568;2024-03-23T04:30:43;4.35;;;1.40;;
25846;SDS011;13676;50.168;8.568;2024-03-23T04:33:09;2.10;;;1.10;;
25846;SDS011;13676;50.168;8.568;2024-03-23T04:35:34;2.17;;;1.10;;
25846;SDS011;13676;50.168;8.568;2024-03-23T04:38:00;1.17;;;1.02;;
25846;SDS011;13676;50.168;8.568;2024-03-23T04:40:26;1.27;;;0.70;;
25846;SDS011;13676;50.168;8.568;2024-03-23T04:42:51;0.90;;;0.80;;
25846;SDS011;13676;50.168;8.568;2024-03-23T04:45:16;1.15;;;0.90;;
25846;SDS011;13676;50.168;8.568;2024-03-23T04:47:42;1.35;;;0.80;;
25846;SDS011;13676;50.168;8.568;2024-03-23T04:50:08;0.73;;;0.70;;
25846;SDS011;13676;50.168;8.568;2024-03-23T04:52:35;0.52;;;0.52;;
25846;SDS011;13676;50.168;8.568;2024-03-23T04:55:01;0.80;;;0.60;;
25846;SDS011;13676;50.168;8.568;2024-03-23T04:57:26;0.75;;;0.50;;
25846;SDS011;13676;50.168;8.568;2024-03-23T04:59:51;0.65;;;0.60;;
25846;SDS011;13676;50.168;8.568;2024-03-23T05:02:17;0.50;;;0.50;;
25846;SDS011;13676;50.168;8.568;2024-03-23T05:04:42;0.50;;;0.50;;
25846;SDS011;13676;50.168;8.568;2024-03-23T05:07:07;0.60;;;0.60;;
25846;SDS011;13676;50.168;8.568;2024-03-23T05:09:33;0.85;;;0.73;;
25846;SDS011;13676;50.168;8.568;2024-03-23T05:11:59;0.70;;;0.70;;
25846;SDS011;13676;50.168;8.568;2024-03-23T05:14:25;1.17;;;1.00;;
25846;SDS011;13676;50.168;8.568;2024-03-23T05:16:51;1.13;;;1.02;;
25846;SDS011;13676;50.168;8.568;2024-03-23T05:19:17;3.75;;;1.00;;
25846;SDS011;13676;50.168;8.568;2024-03-23T05:21:42;1.35;;;1.10;;
25846;SDS011;13676;50.168;8.568;2024-03-23T05:24:08;1.58;;;1.42;;
25846;SDS011;13676;50.168;8.568;2024-03-23T05:26:33;0.82;;;0.82;;
25846;SDS011;13676;50.168;8.568;2024-03-23T05:29:00;1.10;;;1.00;;
25846;SDS011;13676;50.168;8.568;2024-03-23T05:31:26;1.67;;;1.15;;
25846;SDS011;13676;50.168;8.568;2024-03-23T05:33:53;1.67;;;1.37;;
25846;SDS011;13676;50.168;8.568;2024-03-23T05:36:18;1.98;;;1.50;;
25846;SDS011;13676;50.168;8.568;2024-03-23T05:38:44;1.92;;;1.40;;
25846;SDS011;13676;50.168;8.568;2024-03-23T05:41:09;2.35;;;1.50;;
25846;SDS011;13676;50.168;8.568;2024-03-23T05:43:35;2.05;;;1.50;;
25846;SDS011;13676;50.168;8.568;2024-03-23T05:46:00;4.30;;;1.73;;
25846;SDS011;13676;50.168;8.568;2024-03-23T05:48:30;2.10;;;1.70;;
25846;SDS011;13676;50.168;8.568;2024-03-23T05:50:56;2.33;;;1.65;;
25846;SDS011;13676;50.168;8.568;2024-03-23T05:53:22;3.28;;;1.60;;
25846;SDS011;13676;50.168;8.568;2024-03-23T05:55:49;1.57;;;1.10;;
25846;SDS011;13676;50.168;8.568;2024-03-23T05:58:15;1.17;;;1.08;;
25846;SDS011;13676;50.168;8.568;2024-03-23T06:00:41;0.75;;;0.75;;
25846;SDS011;13676;50.168;8.568;2024-03-23T06:03:07;2.25;;;1.20;;
25846;SDS011;13676;50.168;8.568;2024-03-23T06:05:33;0.93;;;0.80;;
25846;SDS011;13676;50.168;8.568;2024-03-23T06:07:58;0.60;;;0.60;;
25846;SDS011;13676;50.168;8.568;2024-03-23T06:10:23;0.60;;;0.60;;
25846;SDS011;13676;50.168;8.568;2024-03-23T06:12:49;0.57;;;0.52;;
25846;SDS011;13676;50.168;8.568;2024-03-23T06:17:42;0.50;;;0.50;;
25846;SDS011;13676;50.168;8.568;2024-03-23T06:20:07;0.50;;;0.50;;
25846;SDS011;13676;50.168;8.568;2024-03-23T06:22:33;0.43;;;0.43;;
25846;SDS011;13676;50.168;8.568;2024-03-23T06:24:58;0.93;;;0.45;;
25846;SDS011;13676;50.168;8.568;2024-03-23T06:27:24;0.40;;;0.40;;
25846;SDS011;13676;50.168;8.568;2024-03-23T06:29:49;1.13;;;0.60;;
25846;SDS011;13676;50.168;8.568;2024-03-23T06:32:15;0.40;;;0.40;;
25846;SDS011;13676;50.168;8.568;2024-03-23T06:34:43;0.40;;;0.40;;
25846;SDS011;13676;50.168;8.568;2024-03-23T06:37:09;0.73;;;0.45;;
25846;SDS011;13676;50.168;8.568;2024-03-23T06:39:38;0.40;;;0.40;;
25846;SDS011;13676;50.168;8.568;2024-03-23T06:42:04;0.40;;;0.40;;
25846;SDS011;13676;50.168;8.568;2024-03-23T06:44:30;0.40;;;0.40;;
25846;SDS011;13676;50.168;8.568;2024-03-23T06:46:56;0.52;;;0.50;;
25846;SDS011;13676;50.168;8.568;2024-03-23T06:49:25;0.40;;;0.40;;
25846;SDS011;13676;50.168;8.568;2024-03-23T06:51:50;0.50;;;0.50;;
25846;SDS011;13676;50.168;8.568;2024-03-23T06:54:16;0.90;;;0.60;;
25846;SDS011;13676;50.168;8.568;2024-03-23T06:56:46;2.25;;;0.90;;
25846;SDS011;13676;50.168;8.568;2024-03-23T06:59:11;1.63;;;0.75;;
25846;SDS011;13676;50.168;8.568;2024-03-23T07:01:37;2.75;;;0.80;;
25846;SDS011;13676;50.168;8.568;2024-03-23T07:04:02;2.17;;;0.90;;
25846;SDS011;13676;50.168;8.568;2024-03-23T07:06:29;1.55;;;0.95;;
25846;SDS011;13676;50.168;8.568;2024-03-23T07:08:55;2.33;;;0.93;;
25846;SDS011;13676;50.168;8.568;2024-03-23T07:11:21;4.50;;;1.05;;
25846;SDS011;13676;50.168;8.568;2024-03-23T07:13:49;2.75;;;1.00;;
25846;SDS011;13676;50.168;8.568;2024-03-23T07:16:15;3.55;;;1.10;;
25846;SDS011;13676;50.168;8.568;2024-03-23T07:18:41;4.45;;;1.17;;
25846;SDS011;13676;50.168;8.568;2024-03-23T07:21:06;5.00;;;1.50;;
25846;SDS011;13676;50.168;8.568;2024-03-23T07:23:32;9.32;;;1.80;;
25846;SDS011;13676;50.168;8.568;2024-03-23T07:25:58;8.77;;;2.17;;
25846;SDS011;13676;50.168;8.568;2024-03-23T07:28:24;4.72;;;1.52;;
25846;SDS011;13676;50.168;8.568;2024-03-23T07:31:08;3.63;;;1.95;;
25846;SDS011;13676;50.168;8.568;2024-03-23T07:33:35;6.05;;;1.67;;
25846;SDS011;13676;50.168;8.568;2024-03-23T07:36:02;6.40;;;1.40;;
25846;SDS011;13676;50.168;8.568;2024-03-23T07:38:28;3.35;;;1.40;;
25846;SDS011;13676;50.168;8.568;2024-03-23T07:41:04;3.50;;;1.38;;
25846;SDS011;13676;50.168;8.568;2024-03-23T07:43:56;6.15;;;1.55;;
25846;SDS011;13676;50.168;8.568;2024-03-23T07:46:21;7.38;;;2.00;;
25846;SDS011;13676;50.168;8.568;2024-03-23T07:48:48;6.97;;;2.03;;
25846;SDS011;13676;50.168;8.568;2024-03-23T07:51:18;7.80;;;2.97;;
25846;SDS011;13676;50.168;8.568;2024-03-23T07:53:45;5.95;;;2.63;;
25846;SDS011;13676;50.168;8.568;2024-03-23T07:56:17;6.13;;;2.78;;
25846;SDS011;13676;50.168;8.568;2024-03-23T07:58:44;8.35;;;3.35;;
25846;SDS011;13676;50.168;8.568;2024-03-23T08:01:13;8.75;;;4.10;;
25846;SDS011;13676;50.168;8.568;2024-03-23T08:03:40;8.93;;;3.80;;
25846;SDS011;13676;50.168;8.568;2024-03-23T08:08:39;10.20;;;4.43;;
25846;SDS011;13676;50.168;8.568;2024-03-23T08:11:05;8.75;;;3.75;;
25846;SDS011;13676;50.168;8.568;2024-03-23T08:13:30;9.73;;;4.20;;
25846;SDS011;13676;50.168;8.568;2024-03-23T08:15:59;11.40;;;4.20;;
25846;SDS011;13676;50.168;8.568;2024-03-23T08:18:25;7.72;;;3.65;;
25846;SDS011;13676;50.168;8.568;2024-03-23T08:21:00;8.52;;;4.72;;
25846;SDS011;13676;50.168;8.568;2024-03-23T08:23:30;11.15;;;4.00;;
25846;SDS011;13676;50.168;8.568;2024-03-23T08:26:02;9.68;;;4.07;;
25846;SDS011;13676;50.168;8.568;2024-03-23T08:28:31;6.32;;;3.75;;
25846;SDS011;13676;50.168;8.568;2024-03-23T08:30:57;10.10;;;3.83;;
25846;SDS011;13676;50.168;8.568;2024-03-23T08:33:23;10.90;;;4.82;;
25846;SDS011;13676;50.168;8.568;2024-03-23T08:35:59;10.90;;;4.07;;
25846;SDS011;13676;50.168;8.568;2024-03-23T08:38:26;8.23;;;3.67;;
25846;SDS011;13676;50.168;8.568;2024-03-23T08:41:25;11.57;;;3.80;;
25846;SDS011;13676;50.168;8.568;2024-03-23T08:43:44;9.57;;;3.38;;
25846;SDS011;13676;50.168;8.568;2024-03-23T08:46:10;10.85;;;3.47;;
25846;SDS011;13676;50.168;8.568;2024-03-23T08:48:40;8.85;;;3.03;;
25846;SDS011;13676;50.168;8.568;2024-03-23T08:51:11;8.43;;;3.15;;
25846;SDS011;13676;50.168;8.568;2024-03-23T08:53:37;15.88;;;3.83;;
25846;SDS011;13676;50.168;8.568;2024-03-23T08:56:03;9.23;;;2.88;;
25846;SDS011;13676;50.168;8.568;2024-03-23T08:58:29;8.95;;;2.67;;
25846;SDS011;13676;50.168;8.568;2024-03-23T09:00:56;13.07;;;3.45;;
25846;SDS011;13676;50.168;8.568;2024-03-23T09:03:22;19.42;;;4.28;;
25846;SDS011;13676;50.168;8.568;2024-03-23T09:05:51;12.13;;;3.78;;
25846;SDS011;13676;50.168;8.568;2024-03-23T09:08:17;15.88;;;4.40;;
25846;SDS011;13676;50.168;8.568;2024-03-23T09:10:43;17.80;;;4.18;;
25846;SDS011;13676;50.168;8.568;2024-03-23T09:13:08;14.20;;;4.25;;
25846;SDS011;13676;50.168;8.568;2024-03-23T09:15:46;15.80;;;4.05;;
25846;SDS011;13676;50.168;8.568;2024-03-23T09:18:12;13.10;;;3.83;;
25846;SDS011;13676;50.168;8.568;2024-03-23T09:20:38;13.27;;;3.67;;
25846;SDS011;13676;50.168;8.568;2024-03-23T09:23:03;19.58;;;4.60;;
25846;SDS011;13676;50.168;8.568;2024-03-23T09:25:29;13.32;;;3.38;;
25846;SDS011;13676;50.168;8.568;2024-03-23T09:27:54;11.73;;;3.10;;
25846;SDS011;13676;50.168;8.568;2024-03-23T09:30:20;12.77;;;3.08;;
25846;SDS011;13676;50.168;8.568;2024-03-23T09:32:45;11.10;;;3.20;;
25846;SDS011;13676;50.168;8.568;2024-03-23T09:35:11;12.70;;;3.72;;
25846;SDS011;13676;50.168;8.568;2024-03-23T09:37:37;11.88;;;3.90;;
25846;SDS011;13676;50.168;8.568;2024-03-23T09:40:05;12.25;;;3.58;;
25846;SDS011;13676;50.168;8.568;2024-03-23T09:42:32;9.95;;;3.58;;
25846;SDS011;13676;50.168;8.568;2024-03-23T09:44:59;9.00;;;3.22;;
25846;SDS011;13676;50.168;8.568;2024-03-23T09:47:24;9.82;;;2.90;;
25846;SDS011;13676;50.168;8.568;2024-03-23T09:49:50;13.88;;;3.50;;
25846;SDS011;13676;50.168;8.568;2024-03-23T09:52:16;7.80;;;2.70;;
25846;SDS011;13676;50.168;8.568;2024-03-23T09:54:41;14.73;;;3.65;;
25846;SDS011;13676;50.168;8.568;2024-03-23T09:57:07;11.52;;;2.75;;
25846;SDS011;13676;50.168;8.568;2024-03-23T09:59:33;14.50;;;3.78;;
25846;SDS011;13676;50.168;8.568;2024-03-23T10:01:59;9.77;;;2.35;;
25846;SDS011;13676;50.168;8.568;2024-03-23T10:04:38;8.60;;;2.35;;
25846;SDS011;13676;50.168;8.568;2024-03-23T10:07:10;10.93;;;2.72;;
25846;SDS011;13676;50.168;8.568;2024-03-23T10:09:40;12.55;;;3.05;;
25846;SDS011;13676;50.168;8.568;2024-03-23T10:12:12;8.07;;;2.30;;
25846;SDS011;13676;50.168;8.568;2024-03-23T10:14:41;10.25;;;2.65;;
25846;SDS011;13676;50.168;8.568;2024-03-23T10:17:11;7.00;;;2.30;;
25846;SDS011;13676;50.168;8.568;2024-03-23T10:19:38;9.55;;;2.33;;
25846;SDS011;13676;50.168;8.568;2024-03-23T10:22:04;12.68;;;2.55;;
25846;SDS011;13676;50.168;8.568;2024-03-23T10:24:29;13.93;;;2.90;;
25846;SDS011;13676;50.168;8.568;2024-03-23T10:26:57;12.82;;;2.47;;
25846;SDS011;13676;50.168;8.568;2024-03-23T10:29:23;10.57;;;2.72;;
25846;SDS011;13676;50.168;8.568;2024-03-23T10:31:48;9.75;;;2.13;;
25846;SDS011;13676;50.168;8.568;2024-03-23T10:34:14;9.90;;;2.45;;
25846;SDS011;13676;50.168;8.568;2024-03-23T10:36:40;6.95;;;2.00;;
25846;SDS011;13676;50.168;8.568;2024-03-23T10:39:07;9.95;;;2.60;;
25846;SDS011;13676;50.168;8.568;2024-03-23T10:41:32;8.93;;;2.33;;
25846;SDS011;13676;50.168;8.568;2024-03-23T10:43:58;9.52;;;2.40;;
25846;SDS011;13676;50.168;8.568;2024-03-23T10:46:26;6.40;;;1.58;;
25846;SDS011;13676;50.168;8.568;2024-03-23T10:48:52;8.30;;;2.10;;
25846;SDS011;13676;50.168;8.568;2024-03-23T10:51:17;9.95;;;2.15;;
25846;SDS011;13676;50.168;8.568;2024-03-23T10:53:43;9.65;;;2.35;;
25846;SDS011;13676;50.168;8.568;2024-03-23T10:56:10;9.00;;;1.85;;
25846;SDS011;13676;50.168;8.568;2024-03-23T10:58:40;7.82;;;1.67;;
25846;SDS011;13676;50.168;8.568;2024-03-23T11:01:10;5.88;;;2.03;;
25846;SDS011;13676;50.168;8.568;2024-03-23T11:03:37;4.60;;;1.65;;
25846;SDS011;13676;50.168;8.568;2024-03-23T11:06:04;5.13;;;1.70;;
25846;SDS011;13676;50.168;8.568;2024-03-23T11:08:30;10.45;;;2.38;;
25846;SDS011;13676;50.168;8.568;2024-03-23T11:11:17;5.15;;;1.75;;
25846;SDS011;13676;50.168;8.568;2024-03-23T11:13:44;5.70;;;1.63;;
25846;SDS011;13676;50.168;8.568;2024-03-23T11:16:13;5.93;;;1.48;;
25846;SDS011;13676;50.168;8.568;2024-03-23T11:18:39;3.67;;;1.50;;
25846;SDS011;13676;50.168;8.568;2024-03-23T11:21:06;3.50;;;1.40;;
25846;SDS011;13676;50.168;8.568;2024-03-23T11:23:32;8.15;;;2.17;;
25846;SDS011;13676;50.168;8.568;2024-03-23T11:25:57;5.10;;;2.10;;
25846;SDS011;13676;50.168;8.568;2024-03-23T11:28:23;10.48;;;2.20;;
25846;SDS011;13676;50.168;8.568;2024-03-23T11:30:48;11.60;;;2.08;;
25846;SDS011;13676;50.168;8.568;2024-03-23T11:33:14;7.78;;;2.05;;
25846;SDS011;13676;50.168;8.568;2024-03-23T11:35:40;12.73;;;2.65;;
25846;SDS011;13676;50.168;8.568;2024-03-23T11:40:35;7.72;;;2.35;;
25846;SDS011;13676;50.168;8.568;2024-03-23T11:43:02;8.95;;;2.90;;
25846;SDS011;13676;50.168;8.568;2024-03-23T11:45:28;9.55;;;3.22;;
25846;SDS011;13676;50.168;8.568;2024-03-23T11:50:39;11.27;;;3.22;;
25846;SDS011;13676;50.168;8.568;2024-03-23T11:55:48;8.65;;;3.17;;
25846;SDS011;13676;50.168;8.568;2024-03-23T11:58:18;7.40;;;2.72;;
25846;SDS011;13676;50.168;8.568;2024-03-23T12:03:23;10.45;;;3.17;;
25846;SDS011;13676;50.168;8.568;2024-03-23T12:05:53;9.38;;;3.28;;
25846;SDS011;13676;50.168;8.568;2024-03-23T12:10:53;9.18;;;3.25;;
25846;SDS011;13676;50.168;8.568;2024-03-23T12:13:30;13.57;;;3.20;;
25846;SDS011;13676;50.168;8.568;2024-03-23T12:15:56;12.38;;;3.72;;
25846;SDS011;13676;50.168;8.568;2024-03-23T12:18:41;9.55;;;3.10;;
25846;SDS011;13676;50.168;8.568;2024-03-23T12:21:07;9.00;;;3.05;;
25846;SDS011;13676;50.168;8.568;2024-03-23T12:23:33;19.38;;;3.88;;
25846;SDS011;13676;50.168;8.568;2024-03-23T12:25:59;8.77;;;3.00;;
25846;SDS011;13676;50.168;8.568;2024-03-23T12:28:24;8.82;;;2.75;;
25846;SDS011;13676;50.168;8.568;2024-03-23T12:30:51;10.02;;;3.08;;
25846;SDS011;13676;50.168;8.568;2024-03-23T12:33:17;9.15;;;3.17;;
25846;SDS011;13676;50.168;8.568;2024-03-23T12:35:42;9.10;;;2.63;;
25846;SDS011;13676;50.168;8.568;2024-03-23T12:38:08;8.23;;;2.60;;
25846;SDS011;13676;50.168;8.568;2024-03-23T12:40:33;7.38;;;2.33;;
25846;SDS011;13676;50.168;8.568;2024-03-23T12:42:58;8.98;;;2.17;;
25846;SDS011;13676;50.168;8.568;2024-03-23T12:45:24;8.05;;;1.98;;
25846;SDS011;13676;50.168;8.568;2024-03-23T12:47:49;3.35;;;1.48;;
25846;SDS011;13676;50.168;8.568;2024-03-23T12:50:17;3.97;;;1.60;;
25846;SDS011;13676;50.168;8.568;2024-03-23T12:52:43;5.82;;;1.70;;
25846;SDS011;13676;50.168;8.568;2024-03-23T12:55:08;7.53;;;1.70;;
25846;SDS011;13676;50.168;8.568;2024-03-23T12:57:33;3.60;;;1.52;;
25846;SDS011;13676;50.168;8.568;2024-03-23T12:59:59;8.23;;;2.75;;
25846;SDS011;13676;50.168;8.568;2024-03-23T13:02:25;9.65;;;2.45;;
25846;SDS011;13676;50.168;8.568;2024-03-23T13:04:51;9.70;;;2.65;;
25846;SDS011;13676;50.168;8.568;2024-03-23T13:07:18;8.18;;;2.83;;
25846;SDS011;13676;50.168;8.568;2024-03-23T13:09:44;7.60;;;2.03;;
25846;SDS011;13676;50.168;8.568;2024-03-23T13:12:10;4.85;;;1.20;;
25846;SDS011;13676;50.168;8.568;2024-03-23T13:14:38;10.20;;;1.75;;
25846;SDS011;13676;50.168;8.568;2024-03-23T13:17:05;5.18;;;1.23;;
25846;SDS011;13676;50.168;8.568;2024-03-23T13:19:31;3.53;;;1.05;;
25846;SDS011;13676;50.168;8.568;2024-03-23T13:21:57;1.95;;;1.10;;
25846;SDS011;13676;50.168;8.568;2024-03-23T13:24:26;2.65;;;1.20;;
25846;SDS011;13676;50.168;8.568;2024-03-23T13:26:53;4.13;;;2.05;;
25846;SDS011;13676;50.168;8.568;2024-03-23T13:29:19;3.05;;;1.67;;
25846;SDS011;13676;50.168;8.568;2024-03-23T13:31:46;1.98;;;1.05;;
25846;SDS011;13676;50.168;8.568;2024-03-23T13:34:11;1.58;;;1.00;;
25846;SDS011;13676;50.168;8.568;2024-03-23T13:36:39;0.90;;;0.80;;
25846;SDS011;13676;50.168;8.568;2024-03-23T13:39:05;1.73;;;1.05;;
25846;SDS011;13676;50.168;8.568;2024-03-23T13:41:36;1.15;;;0.93;;
25846;SDS011;13676;50.168;8.568;2024-03-23T13:44:05;1.80;;;0.98;;
25846;SDS011;13676;50.168;8.568;2024-03-23T13:46:31;1.48;;;0.85;;
25846;SDS011;13676;50.168;8.568;2024-03-23T13:48:57;2.15;;;0.80;;
25846;SDS011;13676;50.168;8.568;2024-03-23T13:51:23;3.17;;;0.98;;
25846;SDS011;13676;50.168;8.568;2024-03-23T13:53:49;2.75;;;0.82;;
25846;SDS011;13676;50.168;8.568;2024-03-23T13:56:15;1.70;;;0.60;;
25846;SDS011;13676;50.168;8.568;2024-03-23T13:58:40;4.20;;;0.80;;
25846;SDS011;13676;50.168;8.568;2024-03-23T14:01:10;1.65;;;0.70;;
25846;SDS011;13676;50.168;8.568;2024-03-23T14:03:36;2.80;;;0.90;;
25846;SDS011;13676;50.168;8.568;2024-03-23T14:06:01;2.22;;;0.82;;
25846;SDS011;13676;50.168;8.568;2024-03-23T14:08:28;1.98;;;0.85;;
25846;SDS011;13676;50.168;8.568;2024-03-23T14:10:53;4.78;;;1.20;;
25846;SDS011;13676;50.168;8.568;2024-03-23T14:13:19;3.60;;;1.75;;
25846;SDS011;13676;50.168;8.568;2024-03-23T14:15:45;3.15;;;1.02;;
25846;SDS011;13676;50.168;8.568;2024-03-23T14:18:10;2.47;;;0.88;;
25846;SDS011;13676;50.168;8.568;2024-03-23T14:20:36;1.65;;;0.70;;
25846;SDS011;13676;50.168;8.568;2024-03-23T14:23:01;1.75;;;0.82;;
25846;SDS011;13676;50.168;8.568;2024-03-23T14:25:26;3.15;;;0.70;;
25846;SDS011;13676;50.168;8.568;2024-03-23T14:30:19;1.13;;;0.80;;
25846;SDS011;13676;50.168;8.568;2024-03-23T14:32:44;1.35;;;0.60;;
25846;SDS011;13676;50.168;8.568;2024-03-23T14:35:10;0.80;;;0.60;;
25846;SDS011;13676;50.168;8.568;2024-03-23T14:37:38;1.58;;;0.80;;
25846;SDS011;13676;50.168;8.568;2024-03-23T14:40:08;1.25;;;0.80;;
25846;SDS011;13676;50.168;8.568;2024-03-23T14:42:33;2.08;;;0.80;;
25846;SDS011;13676;50.168;8.568;2024-03-23T14:44:59;1.80;;;0.68;;
25846;SDS011;13676;50.168;8.568;2024-03-23T14:47:24;2.00;;;0.93;;
25846;SDS011;13676;50.168;8.568;2024-03-23T14:49:50;1.20;;;0.70;;
25846;SDS011;13676;50.168;8.568;2024-03-23T14:52:16;1.27;;;0.70;;
25846;SDS011;13676;50.168;8.568;2024-03-23T14:54:42;1.90;;;1.02;;
25846;SDS011;13676;50.168;8.568;2024-03-23T14:57:07;1.40;;;0.70;;
25846;SDS011;13676;50.168;8.568;2024-03-23T14:59:34;1.92;;;0.90;;
25846;SDS011;13676;50.168;8.568;2024-03-23T15:02:08;2.22;;;0.70;;
25846;SDS011;13676;50.168;8.568;2024-03-23T15:04:34;2.75;;;0.85;;
25846;SDS011;13676;50.168;8.568;2024-03-23T15:07:00;1.75;;;1.00;;
25846;SDS011;13676;50.168;8.568;2024-03-23T15:09:25;2.60;;;0.90;;
25846;SDS011;13676;50.168;8.568;2024-03-23T15:11:51;2.15;;;1.02;;
25846;SDS011;13676;50.168;8.568;2024-03-23T15:14:16;3.95;;;1.02;;
25846;SDS011;13676;50.168;8.568;2024-03-23T15:16:41;1.83;;;0.93;;
25846;SDS011;13676;50.168;8.568;2024-03-23T15:19:07;3.45;;;1.23;;
25846;SDS011;13676;50.168;8.568;2024-03-23T15:21:33;1.83;;;0.93;;
25846;SDS011;13676;50.168;8.568;2024-03-23T15:23:59;3.10;;;0.80;;
25846;SDS011;13676;50.168;8.568;2024-03-23T15:26:24;3.00;;;0.90;;
25846;SDS011;13676;50.168;8.568;2024-03-23T15:28:50;3.33;;;1.02;;
25846;SDS011;13676;50.168;8.568;2024-03-23T15:31:21;2.38;;;0.80;;
25846;SDS011;13676;50.168;8.568;2024-03-23T15:33:46;2.58;;;0.95;;
25846;SDS011;13676;50.168;8.568;2024-03-23T15:36:12;3.50;;;0.95;;
25846;SDS011;13676;50.168;8.568;2024-03-23T15:38:37;1.92;;;1.10;;
25846;SDS011;13676;50.168;8.568;2024-03-23T15:41:03;1.50;;;0.82;;
25846;SDS011;13676;50.168;8.568;2024-03-23T15:43:29;3.25;;;0.70;;
25846;SDS011;13676;50.168;8.568;2024-03-23T15:48:21;2.00;;;1.00;;
25846;SDS011;13676;50.168;8.568;2024-03-23T15:50:50;1.00;;;0.60;;
25846;SDS011;13676;50.168;8.568;2024-03-23T15:53:17;0.80;;;0.65;;
25846;SDS011;13676;50.168;8.568;2024-03-23T15:55:43;2.13;;;0.80;;